sensor_id;sensor_type;location;lat;lon;timestamp;P1;durP1;ratioP1;P2;durP2;ratioP2
28309;SDS011;15571;50.974;13.936;2023-06-14T00:00:40;4.38;;;3.58;;
28309;SDS011;15571;50.974;13.936;2023-06-14T00:03:43;4.97;;;3.10;;
28309;SDS011;15571;50.974;13.936;2023-06-14T00:06:47;4.28;;;2.92;;
28309;SDS011;15571;50.974;13.936;2023-06-14T00:09:50;4.53;;;3.40;;
28309;SDS011;15571;50.974;13.936;2023-06-14T00:12:53;4.65;;;3.30;;
28309;SDS011;15571;50.974;13.936;2023-06-14T00:15:57;6.50;;;3.60;;
28309;SDS011;15571;50.974;13.936;2023-06-14T00:18:59;6.78;;;3.50;;
28309;SDS011;15571;50.974;13.936;2023-06-14T00:22:05;4.10;;;3.13;;
28309;SDS011;15571;50.974;13.936;2023-06-14T00:25:07;3.80;;;2.72;;
28309;SDS011;15571;50.974;13.936;2023-06-14T00:28:12;6.43;;;2.88;;
28309;SDS011;15571;50.974;13.936;2023-06-14T00:31:15;6.38;;;3.30;;
28309;SDS011;15571;50.974;13.936;2023-06-14T00:34:17;5.43;;;3.28;;
28309;SDS011;15571;50.974;13.936;2023-06-14T00:37:20;6.22;;;3.05;;
28309;SDS011;15571;50.974;13.936;2023-06-14T00:40:23;4.65;;;3.00;;
28309;SDS011;15571;50.974;13.936;2023-06-14T00:43:25;5.32;;;3.22;;
28309;SDS011;15571;50.974;13.936;2023-06-14T00:49:30;4.43;;;3.00;;
28309;SDS011;15571;50.974;13.936;2023-06-14T00:52:34;3.67;;;3.05;;
28309;SDS011;15571;50.974;13.936;2023-06-14T00:55:37;4.30;;;3.17;;
28309;SDS011;15571;50.974;13.936;2023-06-14T01:01:41;6.65;;;2.80;;
28309;SDS011;15571;50.974;13.936;2023-06-14T01:04:43;4.85;;;3.40;;
28309;SDS011;15571;50.974;13.936;2023-06-14T01:07:54;5.60;;;3.20;;
28309;SDS011;15571;50.974;13.936;2023-06-14T01:11:09;4.15;;;3.50;;
28309;SDS011;15571;50.974;13.936;2023-06-14T01:14:20;5.60;;;3.65;;
28309;SDS011;15571;50.974;13.936;2023-06-14T01:17:23;5.75;;;3.25;;
28309;SDS011;15571;50.974;13.936;2023-06-14T01:20:28;4.82;;;3.45;;
28309;SDS011;15571;50.974;13.936;2023-06-14T01:23:35;4.82;;;3.00;;
28309;SDS011;15571;50.974;13.936;2023-06-14T01:26:37;3.70;;;3.38;;
28309;SDS011;15571;50.974;13.936;2023-06-14T01:29:46;4.40;;;3.53;;
28309;SDS011;15571;50.974;13.936;2023-06-14T01:32:51;4.28;;;3.40;;
28309;SDS011;15571;50.974;13.936;2023-06-14T01:35:55;7.70;;;3.42;;
28309;SDS011;15571;50.974;13.936;2023-06-14T01:38:59;4.15;;;3.58;;
28309;SDS011;15571;50.974;13.936;2023-06-14T01:42:03;6.50;;;3.58;;
28309;SDS011;15571;50.974;13.936;2023-06-14T01:45:07;4.88;;;3.38;;
28309;SDS011;15571;50.974;13.936;2023-06-14T01:48:11;3.60;;;3.15;;
28309;SDS011;15571;50.974;13.936;2023-06-14T01:51:14;6.47;;;3.53;;
28309;SDS011;15571;50.974;13.936;2023-06-14T01:57:21;6.25;;;3.50;;
28309;SDS011;15571;50.974;13.936;2023-06-14T02:00:24;7.57;;;4.32;;
28309;SDS011;15571;50.974;13.936;2023-06-14T02:03:26;7.45;;;4.15;;
28309;SDS011;15571;50.974;13.936;2023-06-14T02:06:28;6.95;;;3.97;;
28309;SDS011;15571;50.974;13.936;2023-06-14T02:09:32;5.90;;;3.95;;
28309;SDS011;15571;50.974;13.936;2023-06-14T02:12:34;6.25;;;4.00;;
28309;SDS011;15571;50.974;13.936;2023-06-14T02:15:39;4.05;;;3.60;;
28309;SDS011;15571;50.974;13.936;2023-06-14T02:18:44;4.82;;;3.47;;
28309;SDS011;15571;50.974;13.936;2023-06-14T02:21:46;4.05;;;3.65;;
28309;SDS011;15571;50.974;13.936;2023-06-14T02:24:50;5.40;;;3.50;;
28309;SDS011;15571;50.974;13.936;2023-06-14T02:27:53;4.15;;;3.60;;
28309;SDS011;15571;50.974;13.936;2023-06-14T02:30:57;3.72;;;3.17;;
28309;SDS011;15571;50.974;13.936;2023-06-14T02:33:59;4.28;;;3.03;;
28309;SDS011;15571;50.974;13.936;2023-06-14T02:37:01;4.57;;;3.20;;
28309;SDS011;15571;50.974;13.936;2023-06-14T02:40:06;4.47;;;3.47;;
28309;SDS011;15571;50.974;13.936;2023-06-14T02:43:09;4.20;;;3.40;;
28309;SDS011;15571;50.974;13.936;2023-06-14T02:46:13;5.22;;;3.33;;
28309;SDS011;15571;50.974;13.936;2023-06-14T02:49:15;3.28;;;2.92;;
28309;SDS011;15571;50.974;13.936;2023-06-14T02:52:17;5.50;;;3.13;;
28309;SDS011;15571;50.974;13.936;2023-06-14T02:55:22;3.83;;;3.28;;
28309;SDS011;15571;50.974;13.936;2023-06-14T02:58:24;4.07;;;3.08;;
28309;SDS011;15571;50.974;13.936;2023-06-14T03:01:27;5.28;;;4.15;;
28309;SDS011;15571;50.974;13.936;2023-06-14T03:04:41;8.73;;;3.53;;
28309;SDS011;15571;50.974;13.936;2023-06-14T03:07:48;6.43;;;3.67;;
28309;SDS011;15571;50.974;13.936;2023-06-14T03:10:53;3.78;;;3.25;;
28309;SDS011;15571;50.974;13.936;2023-06-14T03:13:57;4.85;;;3.55;;
28309;SDS011;15571;50.974;13.936;2023-06-14T03:17:01;4.70;;;3.72;;
28309;SDS011;15571;50.974;13.936;2023-06-14T03:20:07;5.30;;;3.50;;
28309;SDS011;15571;50.974;13.936;2023-06-14T03:23:09;5.35;;;3.83;;
28309;SDS011;15571;50.974;13.936;2023-06-14T03:26:14;8.25;;;3.50;;
28309;SDS011;15571;50.974;13.936;2023-06-14T03:29:20;6.47;;;4.00;;
28309;SDS011;15571;50.974;13.936;2023-06-14T03:35:24;4.93;;;3.63;;
28309;SDS011;15571;50.974;13.936;2023-06-14T03:41:30;5.00;;;4.05;;
28309;SDS011;15571;50.974;13.936;2023-06-14T03:44:32;4.03;;;3.42;;
28309;SDS011;15571;50.974;13.936;2023-06-14T03:47:35;4.88;;;3.78;;
28309;SDS011;15571;50.974;13.936;2023-06-14T03:53:40;5.03;;;4.03;;
28309;SDS011;15571;50.974;13.936;2023-06-14T03:59:46;5.45;;;3.83;;
28309;SDS011;15571;50.974;13.936;2023-06-14T04:02:49;5.40;;;3.90;;
28309;SDS011;15571;50.974;13.936;2023-06-14T04:05:52;5.00;;;3.53;;
28309;SDS011;15571;50.974;13.936;2023-06-14T04:08:58;4.53;;;3.63;;
28309;SDS011;15571;50.974;13.936;2023-06-14T04:12:09;5.25;;;4.05;;
28309;SDS011;15571;50.974;13.936;2023-06-14T04:15:15;6.35;;;4.07;;
28309;SDS011;15571;50.974;13.936;2023-06-14T04:18:17;5.38;;;3.83;;
28309;SDS011;15571;50.974;13.936;2023-06-14T04:21:20;5.18;;;3.80;;
28309;SDS011;15571;50.974;13.936;2023-06-14T04:24:26;6.25;;;4.75;;
28309;SDS011;15571;50.974;13.936;2023-06-14T04:27:34;7.95;;;4.13;;
28309;SDS011;15571;50.974;13.936;2023-06-14T04:30:38;6.43;;;4.38;;
28309;SDS011;15571;50.974;13.936;2023-06-14T04:33:41;5.53;;;4.10;;
28309;SDS011;15571;50.974;13.936;2023-06-14T04:36:49;6.05;;;4.38;;
28309;SDS011;15571;50.974;13.936;2023-06-14T04:39:54;6.93;;;4.18;;
28309;SDS011;15571;50.974;13.936;2023-06-14T04:43:00;5.65;;;4.50;;
28309;SDS011;15571;50.974;13.936;2023-06-14T04:46:07;4.55;;;4.05;;
28309;SDS011;15571;50.974;13.936;2023-06-14T04:49:12;6.85;;;4.22;;
28309;SDS011;15571;50.974;13.936;2023-06-14T04:52:15;6.18;;;4.13;;
28309;SDS011;15571;50.974;13.936;2023-06-14T04:55:19;5.57;;;4.47;;
28309;SDS011;15571;50.974;13.936;2023-06-14T04:58:27;7.00;;;4.03;;
28309;SDS011;15571;50.974;13.936;2023-06-14T05:01:30;6.43;;;4.68;;
28309;SDS011;15571;50.974;13.936;2023-06-14T05:04:36;6.82;;;4.80;;
28309;SDS011;15571;50.974;13.936;2023-06-14T05:07:40;6.25;;;4.45;;
28309;SDS011;15571;50.974;13.936;2023-06-14T05:10:42;9.60;;;5.30;;
28309;SDS011;15571;50.974;13.936;2023-06-14T05:13:45;8.57;;;4.65;;
28309;SDS011;15571;50.974;13.936;2023-06-14T05:16:48;5.35;;;4.60;;
28309;SDS011;15571;50.974;13.936;2023-06-14T05:19:50;6.07;;;4.88;;
28309;SDS011;15571;50.974;13.936;2023-06-14T05:22:52;6.43;;;4.50;;
28309;SDS011;15571;50.974;13.936;2023-06-14T05:25:55;6.85;;;4.78;;
28309;SDS011;15571;50.974;13.936;2023-06-14T05:28:59;8.02;;;5.03;;
28309;SDS011;15571;50.974;13.936;2023-06-14T05:32:02;7.97;;;5.03;;
28309;SDS011;15571;50.974;13.936;2023-06-14T05:35:04;5.82;;;4.80;;
28309;SDS011;15571;50.974;13.936;2023-06-14T05:38:07;6.55;;;4.63;;
28309;SDS011;15571;50.974;13.936;2023-06-14T05:41:16;7.70;;;4.80;;
28309;SDS011;15571;50.974;13.936;2023-06-14T05:44:25;7.50;;;5.22;;
28309;SDS011;15571;50.974;13.936;2023-06-14T05:47:27;7.60;;;5.20;;
28309;SDS011;15571;50.974;13.936;2023-06-14T05:53:31;7.77;;;5.00;;
28309;SDS011;15571;50.974;13.936;2023-06-14T05:56:35;6.25;;;4.95;;
28309;SDS011;15571;50.974;13.936;2023-06-14T05:59:38;7.40;;;5.57;;
28309;SDS011;15571;50.974;13.936;2023-06-14T06:02:40;9.10;;;5.05;;
28309;SDS011;15571;50.974;13.936;2023-06-14T06:05:43;8.48;;;5.30;;
28309;SDS011;15571;50.974;13.936;2023-06-14T06:08:45;11.68;;;5.32;;
28309;SDS011;15571;50.974;13.936;2023-06-14T06:11:47;5.28;;;4.78;;
28309;SDS011;15571;50.974;13.936;2023-06-14T06:14:51;6.78;;;5.00;;
28309;SDS011;15571;50.974;13.936;2023-06-14T06:17:53;8.90;;;5.00;;
28309;SDS011;15571;50.974;13.936;2023-06-14T06:20:55;5.93;;;5.10;;
28309;SDS011;15571;50.974;13.936;2023-06-14T06:23:57;6.80;;;4.47;;
28309;SDS011;15571;50.974;13.936;2023-06-14T06:27:03;6.15;;;5.03;;
28309;SDS011;15571;50.974;13.936;2023-06-14T06:30:10;9.38;;;5.25;;
28309;SDS011;15571;50.974;13.936;2023-06-14T06:33:15;7.18;;;5.60;;
28309;SDS011;15571;50.974;13.936;2023-06-14T06:36:17;10.82;;;5.22;;
28309;SDS011;15571;50.974;13.936;2023-06-14T06:39:22;11.60;;;5.47;;
28309;SDS011;15571;50.974;13.936;2023-06-14T06:42:24;5.97;;;4.60;;
28309;SDS011;15571;50.974;13.936;2023-06-14T06:45:27;8.65;;;4.97;;
28309;SDS011;15571;50.974;13.936;2023-06-14T06:48:31;6.75;;;4.72;;
28309;SDS011;15571;50.974;13.936;2023-06-14T06:51:34;5.85;;;4.68;;
28309;SDS011;15571;50.974;13.936;2023-06-14T06:54:36;7.07;;;4.88;;
28309;SDS011;15571;50.974;13.936;2023-06-14T06:57:38;7.85;;;5.40;;
28309;SDS011;15571;50.974;13.936;2023-06-14T07:03:44;6.50;;;4.35;;
28309;SDS011;15571;50.974;13.936;2023-06-14T07:09:48;6.22;;;4.72;;
28309;SDS011;15571;50.974;13.936;2023-06-14T07:12:51;7.63;;;4.97;;
28309;SDS011;15571;50.974;13.936;2023-06-14T07:15:57;8.30;;;4.68;;
28309;SDS011;15571;50.974;13.936;2023-06-14T07:19:01;5.60;;;4.82;;
28309;SDS011;15571;50.974;13.936;2023-06-14T07:22:05;7.30;;;4.78;;
28309;SDS011;15571;50.974;13.936;2023-06-14T07:25:07;11.45;;;5.50;;
28309;SDS011;15571;50.974;13.936;2023-06-14T07:28:12;8.35;;;5.25;;
28309;SDS011;15571;50.974;13.936;2023-06-14T07:31:16;6.50;;;4.85;;
28309;SDS011;15571;50.974;13.936;2023-06-14T07:34:22;9.38;;;4.75;;
28309;SDS011;15571;50.974;13.936;2023-06-14T07:37:24;6.70;;;4.70;;
28309;SDS011;15571;50.974;13.936;2023-06-14T07:40:26;7.88;;;4.18;;
28309;SDS011;15571;50.974;13.936;2023-06-14T07:43:28;7.35;;;4.68;;
28309;SDS011;15571;50.974;13.936;2023-06-14T07:46:32;7.10;;;4.95;;
28309;SDS011;15571;50.974;13.936;2023-06-14T07:49:34;5.63;;;4.47;;
28309;SDS011;15571;50.974;13.936;2023-06-14T07:52:38;6.13;;;4.30;;
28309;SDS011;15571;50.974;13.936;2023-06-14T07:55:42;11.45;;;7.95;;
28309;SDS011;15571;50.974;13.936;2023-06-14T07:58:44;8.45;;;5.22;;
28309;SDS011;15571;50.974;13.936;2023-06-14T08:01:48;6.75;;;5.50;;
28309;SDS011;15571;50.974;13.936;2023-06-14T08:04:50;7.57;;;4.80;;
28309;SDS011;15571;50.974;13.936;2023-06-14T08:07:52;8.25;;;5.43;;
28309;SDS011;15571;50.974;13.936;2023-06-14T08:10:55;7.13;;;4.60;;
28309;SDS011;15571;50.974;13.936;2023-06-14T08:17:00;5.27;;;3.77;;
28309;SDS011;15571;50.974;13.936;2023-06-14T08:20:06;3.25;;;2.83;;
28309;SDS011;15571;50.974;13.936;2023-06-14T08:23:09;7.47;;;3.22;;
28309;SDS011;15571;50.974;13.936;2023-06-14T08:26:11;6.68;;;4.05;;
28309;SDS011;15571;50.974;13.936;2023-06-14T08:29:17;4.63;;;2.70;;
28309;SDS011;15571;50.974;13.936;2023-06-14T08:32:20;3.85;;;2.60;;
28309;SDS011;15571;50.974;13.936;2023-06-14T08:35:22;4.03;;;2.70;;
28309;SDS011;15571;50.974;13.936;2023-06-14T08:38:24;4.82;;;3.20;;
28309;SDS011;15571;50.974;13.936;2023-06-14T08:41:26;4.97;;;3.22;;
28309;SDS011;15571;50.974;13.936;2023-06-14T08:44:30;4.90;;;3.25;;
28309;SDS011;15571;50.974;13.936;2023-06-14T08:47:37;4.53;;;3.10;;
28309;SDS011;15571;50.974;13.936;2023-06-14T08:50:40;4.22;;;3.38;;
28309;SDS011;15571;50.974;13.936;2023-06-14T08:53:45;3.95;;;3.25;;
28309;SDS011;15571;50.974;13.936;2023-06-14T08:56:51;5.85;;;4.10;;
28309;SDS011;15571;50.974;13.936;2023-06-14T08:59:53;6.82;;;3.17;;
28309;SDS011;15571;50.974;13.936;2023-06-14T09:02:57;6.30;;;3.50;;
28309;SDS011;15571;50.974;13.936;2023-06-14T09:06:00;5.55;;;3.70;;
28309;SDS011;15571;50.974;13.936;2023-06-14T09:09:04;3.95;;;3.55;;
28309;SDS011;15571;50.974;13.936;2023-06-14T09:12:08;5.68;;;3.38;;
28309;SDS011;15571;50.974;13.936;2023-06-14T09:15:13;6.32;;;3.28;;
28309;SDS011;15571;50.974;13.936;2023-06-14T09:18:18;5.40;;;3.63;;
28309;SDS011;15571;50.974;13.936;2023-06-14T09:21:21;4.85;;;3.10;;
28309;SDS011;15571;50.974;13.936;2023-06-14T09:24:23;4.15;;;3.40;;
28309;SDS011;15571;50.974;13.936;2023-06-14T09:27:28;6.82;;;3.92;;
28309;SDS011;15571;50.974;13.936;2023-06-14T09:30:31;3.92;;;3.38;;
28309;SDS011;15571;50.974;13.936;2023-06-14T09:36:36;8.00;;;4.97;;
28309;SDS011;15571;50.974;13.936;2023-06-14T09:39:51;5.97;;;3.83;;
28309;SDS011;15571;50.974;13.936;2023-06-14T09:42:53;5.55;;;4.07;;
28309;SDS011;15571;50.974;13.936;2023-06-14T09:45:58;5.68;;;3.83;;
28309;SDS011;15571;50.974;13.936;2023-06-14T09:49:03;4.72;;;4.00;;
28309;SDS011;15571;50.974;13.936;2023-06-14T09:52:06;4.13;;;3.67;;
28309;SDS011;15571;50.974;13.936;2023-06-14T09:55:11;5.45;;;3.80;;
28309;SDS011;15571;50.974;13.936;2023-06-14T09:58:14;4.28;;;3.53;;
28309;SDS011;15571;50.974;13.936;2023-06-14T10:01:19;5.32;;;4.40;;
28309;SDS011;15571;50.974;13.936;2023-06-14T10:04:23;8.68;;;3.88;;
28309;SDS011;15571;50.974;13.936;2023-06-14T10:07:26;5.18;;;4.25;;
28309;SDS011;15571;50.974;13.936;2023-06-14T10:10:34;7.85;;;4.18;;
28309;SDS011;15571;50.974;13.936;2023-06-14T10:13:37;5.50;;;4.50;;
28309;SDS011;15571;50.974;13.936;2023-06-14T10:16:47;7.63;;;4.88;;
28309;SDS011;15571;50.974;13.936;2023-06-14T10:20:02;7.28;;;4.57;;
28309;SDS011;15571;50.974;13.936;2023-06-14T10:23:13;8.75;;;4.05;;
28309;SDS011;15571;50.974;13.936;2023-06-14T10:26:20;5.65;;;3.97;;
28309;SDS011;15571;50.974;13.936;2023-06-14T10:29:25;4.93;;;3.75;;
28309;SDS011;15571;50.974;13.936;2023-06-14T10:32:32;7.13;;;4.22;;
28309;SDS011;15571;50.974;13.936;2023-06-14T10:35:38;5.32;;;4.32;;
28309;SDS011;15571;50.974;13.936;2023-06-14T10:38:40;5.57;;;3.90;;
28309;SDS011;15571;50.974;13.936;2023-06-14T10:41:50;4.05;;;3.30;;
28309;SDS011;15571;50.974;13.936;2023-06-14T10:44:54;3.95;;;3.22;;
28309;SDS011;15571;50.974;13.936;2023-06-14T10:47:57;8.45;;;3.00;;
28309;SDS011;15571;50.974;13.936;2023-06-14T10:51:01;4.35;;;3.20;;
28309;SDS011;15571;50.974;13.936;2023-06-14T10:54:05;3.65;;;3.30;;
28309;SDS011;15571;50.974;13.936;2023-06-14T10:57:13;5.10;;;3.08;;
28309;SDS011;15571;50.974;13.936;2023-06-14T11:00:16;3.30;;;2.90;;
28309;SDS011;15571;50.974;13.936;2023-06-14T11:03:43;3.90;;;3.20;;
28309;SDS011;15571;50.974;13.936;2023-06-14T11:06:54;3.15;;;2.85;;
28309;SDS011;15571;50.974;13.936;2023-06-14T11:10:14;4.47;;;3.00;;
28309;SDS011;15571;50.974;13.936;2023-06-14T11:13:28;5.28;;;2.58;;
28309;SDS011;15571;50.974;13.936;2023-06-14T11:19:33;3.28;;;2.15;;
28309;SDS011;15571;50.974;13.936;2023-06-14T11:22:40;2.95;;;2.67;;
28309;SDS011;15571;50.974;13.936;2023-06-14T11:25:43;2.45;;;2.10;;
28309;SDS011;15571;50.974;13.936;2023-06-14T11:28:45;5.45;;;2.53;;
28309;SDS011;15571;50.974;13.936;2023-06-14T11:34:49;3.10;;;2.63;;
28309;SDS011;15571;50.974;13.936;2023-06-14T11:37:54;3.72;;;3.13;;
28309;SDS011;15571;50.974;13.936;2023-06-14T11:41:00;5.82;;;3.28;;
28309;SDS011;15571;50.974;13.936;2023-06-14T11:44:02;3.35;;;3.05;;
28309;SDS011;15571;50.974;13.936;2023-06-14T11:47:07;3.65;;;3.33;;
28309;SDS011;15571;50.974;13.936;2023-06-14T11:50:10;5.28;;;3.10;;
28309;SDS011;15571;50.974;13.936;2023-06-14T11:53:13;4.20;;;3.00;;
28309;SDS011;15571;50.974;13.936;2023-06-14T11:56:20;4.82;;;3.53;;
28309;SDS011;15571;50.974;13.936;2023-06-14T11:59:23;3.78;;;3.47;;
28309;SDS011;15571;50.974;13.936;2023-06-14T12:02:31;5.65;;;3.85;;
28309;SDS011;15571;50.974;13.936;2023-06-14T12:05:33;4.28;;;3.88;;
28309;SDS011;15571;50.974;13.936;2023-06-14T12:08:37;5.85;;;3.70;;
28309;SDS011;15571;50.974;13.936;2023-06-14T12:11:42;6.70;;;4.25;;
28309;SDS011;15571;50.974;13.936;2023-06-14T12:17:48;5.82;;;4.07;;
28309;SDS011;15571;50.974;13.936;2023-06-14T13:52:28;4.43;;;3.33;;
28309;SDS011;15571;50.974;13.936;2023-06-14T13:55:30;4.95;;;3.40;;
28309;SDS011;15571;50.974;13.936;2023-06-14T13:58:33;4.38;;;3.80;;
28309;SDS011;15571;50.974;13.936;2023-06-14T14:04:37;4.90;;;4.38;;
28309;SDS011;15571;50.974;13.936;2023-06-14T14:07:41;5.93;;;4.20;;
28309;SDS011;15571;50.974;13.936;2023-06-14T14:10:47;3.83;;;3.40;;
28309;SDS011;15571;50.974;13.936;2023-06-14T14:13:51;5.15;;;3.95;;
28309;SDS011;15571;50.974;13.936;2023-06-14T14:19:55;5.25;;;4.35;;
28309;SDS011;15571;50.974;13.936;2023-06-14T14:26:01;5.45;;;4.00;;
28309;SDS011;15571;50.974;13.936;2023-06-14T14:29:04;4.65;;;3.80;;
28309;SDS011;15571;50.974;13.936;2023-06-14T14:32:09;4.22;;;3.83;;
28309;SDS011;15571;50.974;13.936;2023-06-14T14:35:14;5.18;;;3.65;;
28309;SDS011;15571;50.974;13.936;2023-06-14T14:38:18;6.35;;;3.95;;
28309;SDS011;15571;50.974;13.936;2023-06-14T14:41:20;5.93;;;4.13;;
28309;SDS011;15571;50.974;13.936;2023-06-14T14:47:24;4.32;;;3.92;;
28309;SDS011;15571;50.974;13.936;2023-06-14T19:35:49;5.22;;;4.25;;
28309;SDS011;15571;50.974;13.936;2023-06-14T19:38:52;4.68;;;4.10;;
28309;SDS011;15571;50.974;13.936;2023-06-14T19:41:56;5.82;;;4.75;;
28309;SDS011;15571;50.974;13.936;2023-06-14T19:44:59;5.72;;;4.88;;
28309;SDS011;15571;50.974;13.936;2023-06-14T19:48:03;5.53;;;4.25;;
28309;SDS011;15571;50.974;13.936;2023-06-14T19:51:07;5.78;;;4.80;;
28309;SDS011;15571;50.974;13.936;2023-06-14T19:54:09;5.43;;;4.72;;
28309;SDS011;15571;50.974;13.936;2023-06-14T19:57:11;5.32;;;4.72;;
28309;SDS011;15571;50.974;13.936;2023-06-14T20:00:15;6.43;;;5.25;;
28309;SDS011;15571;50.974;13.936;2023-06-14T20:03:17;8.55;;;4.97;;
28309;SDS011;15571;50.974;13.936;2023-06-14T20:06:21;7.40;;;5.03;;
28309;SDS011;15571;50.974;13.936;2023-06-14T20:09:23;6.10;;;4.53;;
28309;SDS011;15571;50.974;13.936;2023-06-14T20:12:26;7.10;;;4.88;;
28309;SDS011;15571;50.974;13.936;2023-06-14T20:18:30;6.60;;;5.40;;
28309;SDS011;15571;50.974;13.936;2023-06-14T20:21:34;6.90;;;4.63;;
28309;SDS011;15571;50.974;13.936;2023-06-14T20:24:36;7.82;;;5.00;;
28309;SDS011;15571;50.974;13.936;2023-06-14T20:27:43;8.55;;;4.40;;
28309;SDS011;15571;50.974;13.936;2023-06-14T20:33:47;5.93;;;4.95;;
28309;SDS011;15571;50.974;13.936;2023-06-14T20:39:53;4.82;;;4.32;;
28309;SDS011;15571;50.974;13.936;2023-06-14T20:43:00;6.18;;;4.65;;
28309;SDS011;15571;50.974;13.936;2023-06-14T20:46:04;6.38;;;4.78;;
28309;SDS011;15571;50.974;13.936;2023-06-14T20:49:08;5.32;;;4.55;;
28309;SDS011;15571;50.974;13.936;2023-06-14T20:55:14;6.53;;;4.97;;
28309;SDS011;15571;50.974;13.936;2023-06-14T20:58:18;5.72;;;4.47;;
28309;SDS011;15571;50.974;13.936;2023-06-14T21:01:21;6.72;;;5.20;;
28309;SDS011;15571;50.974;13.936;2023-06-14T21:04:35;8.15;;;5.82;;
28309;SDS011;15571;50.974;13.936;2023-06-14T21:07:39;5.45;;;4.70;;
28309;SDS011;15571;50.974;13.936;2023-06-14T21:10:42;5.15;;;4.65;;
28309;SDS011;15571;50.974;13.936;2023-06-14T21:13:48;7.10;;;5.10;;
28309;SDS011;15571;50.974;13.936;2023-06-14T21:16:55;6.47;;;5.30;;
28309;SDS011;15571;50.974;13.936;2023-06-14T21:23:00;6.37;;;5.57;;
28309;SDS011;15571;50.974;13.936;2023-06-14T21:26:02;6.25;;;4.85;;
28309;SDS011;15571;50.974;13.936;2023-06-14T21:32:06;8.47;;;5.30;;
28309;SDS011;15571;50.974;13.936;2023-06-14T21:35:12;4.82;;;4.32;;
28309;SDS011;15571;50.974;13.936;2023-06-14T21:38:18;5.85;;;4.30;;
28309;SDS011;15571;50.974;13.936;2023-06-14T21:41:21;7.90;;;4.88;;
28309;SDS011;15571;50.974;13.936;2023-06-14T21:44:23;7.45;;;4.72;;
28309;SDS011;15571;50.974;13.936;2023-06-14T21:47:25;6.20;;;4.90;;
28309;SDS011;15571;50.974;13.936;2023-06-14T21:50:27;7.63;;;5.05;;
28309;SDS011;15571;50.974;13.936;2023-06-14T21:53:30;6.13;;;5.05;;
28309;SDS011;15571;50.974;13.936;2023-06-14T21:56:32;5.45;;;4.95;;
28309;SDS011;15571;50.974;13.936;2023-06-14T22:02:36;5.45;;;4.90;;
28309;SDS011;15571;50.974;13.936;2023-06-14T22:05:44;6.38;;;4.90;;
28309;SDS011;15571;50.974;13.936;2023-06-14T22:08:48;5.88;;;5.20;;
28309;SDS011;15571;50.974;13.936;2023-06-14T22:11:50;5.97;;;5.25;;
28309;SDS011;15571;50.974;13.936;2023-06-14T22:14:53;5.78;;;5.13;;
28309;SDS011;15571;50.974;13.936;2023-06-14T22:17:55;6.10;;;5.13;;
28309;SDS011;15571;50.974;13.936;2023-06-14T22:21:00;7.05;;;5.03;;
28309;SDS011;15571;50.974;13.936;2023-06-14T22:24:06;7.82;;;5.72;;
28309;SDS011;15571;50.974;13.936;2023-06-14T22:27:13;9.45;;;5.80;;
28309;SDS011;15571;50.974;13.936;2023-06-14T22:30:20;7.10;;;5.78;;
28309;SDS011;15571;50.974;13.936;2023-06-14T22:33:22;8.55;;;5.85;;
28309;SDS011;15571;50.974;13.936;2023-06-14T22:36:26;7.13;;;5.55;;
28309;SDS011;15571;50.974;13.936;2023-06-14T22:39:29;6.93;;;5.65;;
28309;SDS011;15571;50.974;13.936;2023-06-14T22:42:31;7.85;;;5.65;;
28309;SDS011;15571;50.974;13.936;2023-06-14T22:45:35;6.40;;;5.15;;
28309;SDS011;15571;50.974;13.936;2023-06-14T22:51:45;6.28;;;5.43;;
28309;SDS011;15571;50.974;13.936;2023-06-14T22:54:57;8.82;;;5.63;;
28309;SDS011;15571;50.974;13.936;2023-06-14T22:58:03;7.07;;;5.93;;
28309;SDS011;15571;50.974;13.936;2023-06-14T23:01:07;6.97;;;5.75;;
28309;SDS011;15571;50.974;13.936;2023-06-14T23:04:14;6.40;;;5.30;;
28309;SDS011;15571;50.974;13.936;2023-06-14T23:07:17;8.23;;;5.95;;
28309;SDS011;15571;50.974;13.936;2023-06-14T23:10:23;7.90;;;6.32;;
28309;SDS011;15571;50.974;13.936;2023-06-14T23:13:25;8.38;;;6.15;;
28309;SDS011;15571;50.974;13.936;2023-06-14T23:16:27;10.32;;;5.80;;
28309;SDS011;15571;50.974;13.936;2023-06-14T23:19:29;7.40;;;5.97;;
28309;SDS011;15571;50.974;13.936;2023-06-14T23:22:32;6.88;;;6.07;;
28309;SDS011;15571;50.974;13.936;2023-06-14T23:25:37;8.63;;;5.82;;
28309;SDS011;15571;50.974;13.936;2023-06-14T23:28:42;8.25;;;6.03;;
28309;SDS011;15571;50.974;13.936;2023-06-14T23:31:45;6.88;;;5.65;;
28309;SDS011;15571;50.974;13.936;2023-06-14T23:34:49;7.38;;;6.03;;
28309;SDS011;15571;50.974;13.936;2023-06-14T23:37:53;6.28;;;5.38;;
28309;SDS011;15571;50.974;13.936;2023-06-14T23:40:56;7.90;;;6.07;;
28309;SDS011;15571;50.974;13.936;2023-06-14T23:43:58;7.07;;;6.00;;
28309;SDS011;15571;50.974;13.936;2023-06-14T23:47:01;8.07;;;6.13;;
28309;SDS011;15571;50.974;13.936;2023-06-14T23:50:06;7.13;;;6.13;;
28309;SDS011;15571;50.974;13.936;2023-06-14T23:53:09;7.60;;;5.88;;
28309;SDS011;15571;50.974;13.936;2023-06-14T23:56:16;6.68;;;5.75;;
28309;SDS011;15571;50.974;13.936;2023-06-14T23:59:20;8.38;;;5.95;;
